Ungava - eastern half: Past 24 Hour Conditions

 

Iqaluit Airport

05:00 PM EDT 18 April 2014
This table is a summary of hourly weather conditions for the past 24 hours.
Date / Time
(EDT)
Wind(knots) Conditions Visibility(km) Pressure(kPa) Air tempC) Relative humidity(%) Dew pointC) Wind Chill
18 April 2014
17:00 NW 14 Drifting Snow 48 101.3 -13 60 -19 -22
16:00 NW 17 Mainly Sunny 48 101.3 -12 57 -19 -22
15:00 NW 15 gust 20 Drifting Snow 48 101.2 -12 57 -19 -22
14:00 WNW 15 gust 21 Drifting Snow 48 101.2 -12 59 -19 -22
13:00 NW 11 Drifting Snow 48 101.2 -13 58 -19 -22
12:00 NW 10 Drifting Snow 48 101.2 -14 58 -21 -23
11:00 NW 13 Drifting Snow 48 101.2 -15 59 -21 -25
10:00 NNW 11 Mostly Cloudy 48 101.2 -17 65 -22 -26
9:00 NW 8 Light Snow 24 101.2 -19 66 -23 -27
8:00 WNW 5 Light Snow 24 101.2 -20 69 -24 -27
7:00 NW 6 Light Snow 32 101.2 -21 72 -24 -28
6:00 NW 6 Mostly Cloudy 48 101.1 -22 74 -25 -29
5:00 NW 8 Mostly Cloudy 24 101.1 -22 74 -26 -32
4:00 NW 8 Partly Cloudy 24 101.0 -21 73 -25 -30
3:00 NW 8 Light Snow 8 100.9 -19 72 -23 -28
2:00 NW 8 Light Snow 24 100.9 -19 72 -23 -27
1:00 W 7 Light Snow 19 100.8 -19 70 -23 -27
0:00 N 6 Light Snow 19 100.8 -18 71 -22 -26
17 April 2014
23:00 N 4 Mainly Clear 24 100.8 -20 66 -24 -26
22:00 N 4 Mainly Clear 24 100.7 -19 66 -24 -25
21:00 N 2 Mainly Clear 24 100.7 -18 64 -24 -21
20:00 calm Mainly Sunny 48 100.7 -16 68 -21 *
19:00 W 4 Mainly Sunny 48 100.6 -15 59 -21 -20
18:00 WSW 5 Partly Cloudy 48 100.6 -14 57 -21 -20
17:00 W 7 Partly Cloudy 48 100.5 -14 53 -21 -21
 
Map of Arctic - Eastern Arctic marine weather areas Baker Lake Airport Chesterfield Inlet Airport Coral Harbour Airport Gjoa Haven Airport Kugaaruk Airport Rankin Inlet Airport Shepherd Bay Airport Whale Cove Airport Arctic Bay Brevoort Island Qikiqtarjuaq Airport Cape Dorset Airport Cape Dyer Cape Hooper Clyde Airport Grise Fiord Airport Hall Beach Airport Igloolik Airport Iqaluit Airport Longstaff Bluff Pangnirtung Airport Pond Inlet Airport Repulse Bay Airport Resolute Airport Resolution Island Rowley Island Airport Taloyoak Airport Wager Bay Akulivik Airport Ivujivik Airport Puvirnituq Airport Kangiqsujuaq Airport Kangirsuk Airport Quaqtaq Airport Tasiujaq Airport Cape Kakkiviak Cape Kiglapait Nain Airport Saglek Cape Mercy Kimmirut Airport Aupaluk Airport Salluit Airport Kangiqsualujjuaq Airport Fort Ross
Legend: buoyBuoy land stationLand Station